Time;durP1;ratioP1;P1;durP2;ratioP2;P2;SDS_P1;SDS_P2;PMS_P1;PMS_P2;Temp;Humidity;BMP_temperature;BMP_pressure;BME280_temperature;BME280_humidity;BME280_pressure;Samples;Min_cycle;Max_cycle;Signal;HPM_P1;HPM_P2
2022/10/02 00:02:01;;;;;;;;;5.00;5.00;;;;;17.56;63.99;101288.84;4982477;28;45773;-58
2022/10/02 00:04:41;;;;;;;;;6.60;5.00;;;;;17.58;64.10;101289.41;4979065;28;48199;-53
2022/10/02 00:07:09;;;;;;;;;4.80;2.80;;;;;17.40;64.20;101257.97;4979752;28;45499;-57
2022/10/02 00:09:48;;;;;;;;;3.00;3.00;;;;;17.55;64.52;101287.16;4979052;28;45335;-56
2022/10/02 00:12:16;;;;;;;;;3.60;3.60;;;;;17.40;64.60;101254.38;4997572;28;45468;-57
2022/10/02 00:14:41;;;;;;;;;2.00;2.00;;;;;17.51;65.44;101278.47;4979518;28;45958;-56
2022/10/02 00:17:13;;;;;;;;;4.00;1.00;;;;;17.44;65.64;101278.59;4979663;28;45476;-56
2022/10/02 00:19:39;;;;;;;;;3.80;3.80;;;;;17.49;65.70;101291.72;4980507;28;45525;-56
2022/10/02 00:22:54;;;;;;;;;4.75;4.75;;;;;17.50;65.87;101292.59;4997384;28;45474;-58
2022/10/02 00:25:38;;;;;;;;;2.40;2.40;;;;;17.54;65.76;101297.41;4994668;28;45701;-54
2022/10/02 00:28:10;;;;;;;;;2.40;2.20;;;;;17.56;65.67;101297.97;4997048;28;45458;-58
2022/10/02 00:31:25;;;;;;;;;4.80;3.40;;;;;17.52;66.55;101290.41;4996685;28;45297;-57
2022/10/02 00:34:05;;;;;;;;;4.80;3.80;;;;;17.52;66.20;101285.69;4965655;28;45569;-58
2022/10/02 00:36:45;;;;;;;;;9.40;4.40;;;;;17.52;66.29;101284.84;4996519;28;46522;-53
2022/10/02 00:39:42;;;;;;;;;6.80;5.20;;;;;17.51;66.63;101283.16;4997438;28;45279;-59
2022/10/02 00:42:29;;;;;;;;;3.00;3.00;;;;;17.51;66.72;101292.34;5016419;28;45396;-55
2022/10/02 00:45:10;;;;;;;;;4.80;3.00;;;;;17.51;66.53;101303.44;4998663;28;45531;-56
2022/10/02 00:47:58;;;;;;;;;2.20;2.20;;;;;17.51;67.00;101302.59;4998304;28;46296;-55
2022/10/02 00:51:02;;;;;;;;;4.40;4.00;;;;;17.50;67.22;101296.19;5015875;28;45299;-56
2022/10/02 00:53:36;;;;;;;;;6.20;3.60;;;;;17.50;67.17;101310.06;4972045;28;45463;-56
2022/10/02 00:56:24;;;;;;;;;2.80;2.60;;;;;17.46;67.32;101315.25;5016577;28;45685;-56
2022/10/02 00:59:08;;;;;;;;;6.40;2.80;;;;;17.48;67.54;101312.25;5016457;28;46413;-58
2022/10/02 01:02:03;;;;;;;;;6.00;3.00;;;;;17.42;68.37;101311.31;5016083;28;45346;-61
2022/10/02 01:04:32;;;;;;;;;3.80;3.20;;;;;17.40;68.21;101307.09;4944658;28;45530;-56
2022/10/02 01:06:58;;;;;;;;;4.40;3.40;;;;;17.45;68.52;101313.56;5016083;28;45528;-53
2022/10/02 01:09:23;;;;;;;;;5.50;2.75;;;;;17.47;68.57;101308.63;4998224;28;47451;-55
2022/10/02 01:11:50;;;;;;;;;6.75;5.00;;;;;17.47;68.96;101308.63;4981851;28;45438;-57
2022/10/02 01:14:15;;;;;;;;;7.40;2.20;;;;;17.44;68.95;101309.13;4998100;28;45360;-58
2022/10/02 01:16:41;;;;;;;;;2.00;2.00;;;;;17.48;69.40;101302.00;4981879;28;45251;-57
2022/10/02 01:19:20;;;;;;;;;2.75;2.00;;;;;17.27;69.43;101264.66;4997535;28;45643;-54
2022/10/02 01:21:47;;;;;;;;;6.40;2.60;;;;;17.47;69.86;101293.91;4964538;28;45498;-57
2022/10/02 01:24:34;;;;;;;;;2.20;2.00;;;;;17.51;69.77;101294.25;4998197;28;45445;-55
2022/10/02 01:27:00;;;;;;;;;1.80;1.80;;;;;17.46;70.99;101292.22;5016040;28;45252;-54
2022/10/02 01:29:25;;;;;;;;;1.25;1.25;;;;;17.36;71.56;101297.56;4997658;28;46203;-56
2022/10/02 01:31:51;;;;;;;;;1.75;1.00;;;;;17.28;71.98;101271.06;4998183;28;45217;-55
2022/10/02 01:34:16;;;;;;;;;2.50;2.00;;;;;17.19;72.25;101259.50;4998044;28;45254;-54
2022/10/02 01:36:42;;;;;;;;;1.50;1.50;;;;;17.43;72.51;101298.25;5016270;28;45572;-56
2022/10/02 01:39:08;;;;;;;;;1.80;1.20;;;;;17.26;72.42;101267.66;4997563;28;47356;-58
2022/10/02 01:41:35;;;;;;;;;2.00;2.00;;;;;17.40;72.92;101290.44;5015629;28;45441;-56
2022/10/02 01:44:00;;;;;;;;;1.20;1.20;;;;;17.44;72.55;101294.38;4981788;28;45477;-57
2022/10/02 01:46:58;;;;;;;;;1.50;1.50;;;;;17.42;72.88;101291.88;5015847;28;45348;-58
2022/10/02 01:49:44;;;;;;;;;3.00;3.00;;;;;17.46;72.55;101290.28;5015476;28;45634;-58
2022/10/02 01:52:19;;;;;;;;;4.60;1.20;;;;;17.47;72.42;101283.63;4998879;28;45401;-58
2022/10/02 01:55:08;;;;;;;;;3.40;3.40;;;;;17.48;72.72;101279.81;4984863;28;45330;-57
2022/10/02 01:57:39;;;;;;;;;3.00;3.00;;;;;17.50;72.83;101281.50;4992571;28;45727;-58
2022/10/02 02:00:18;;;;;;;;;2.00;2.00;;;;;17.50;72.67;101285.09;4994399;28;46572;-56
2022/10/02 02:03:05;;;;;;;;;2.60;1.40;;;;;17.51;72.83;101288.72;4990499;28;45505;-57
2022/10/02 02:05:49;;;;;;;;;1.60;1.60;;;;;17.49;73.14;101286.19;4992656;28;45412;-55
2022/10/02 02:08:33;;;;;;;;;2.80;2.00;;;;;17.50;72.88;101284.25;4991463;28;45534;-57
2022/10/02 02:11:18;;;;;;;;;1.00;1.00;;;;;17.49;73.02;101283.41;4992197;28;45836;-58
2022/10/02 02:14:04;;;;;;;;;2.20;1.60;;;;;17.47;73.17;101275.31;4994229;28;45942;-57
2022/10/02 02:16:31;;;;;;;;;2.00;2.00;;;;;17.50;73.26;101273.16;4995490;28;45429;-55
2022/10/02 02:19:09;;;;;;;;;2.80;2.00;;;;;17.51;73.76;101269.28;5010882;28;45413;-58
2022/10/02 02:21:44;;;;;;;;;1.00;1.00;;;;;17.45;74.55;101260.84;4995102;28;45377;-58
2022/10/02 02:24:16;;;;;;;;;2.00;2.00;;;;;17.40;74.65;101257.16;4993751;28;45384;-58
2022/10/02 02:26:42;;;;;;;;;2.00;1.00;;;;;17.43;75.07;101256.63;4993376;28;45485;-56
2022/10/02 02:29:08;;;;;;;;;1.40;1.40;;;;;17.42;75.10;101264.13;5010576;28;45457;-57
2022/10/02 02:31:42;;;;;;;;;2.00;2.00;;;;;17.24;75.24;101228.22;5009753;28;46532;-57
2022/10/02 02:34:10;;;;;;;;;2.20;2.20;;;;;17.35;75.06;101241.25;4993499;28;45852;-57
2022/10/02 02:36:39;;;;;;;;;3.80;2.00;;;;;17.46;74.97;101256.16;5010177;28;45363;-56
2022/10/02 02:39:08;;;;;;;;;1.40;1.20;;;;;17.46;75.38;101240.34;4994346;28;45817;-57
2022/10/02 02:41:38;;;;;;;;;2.20;1.40;;;;;17.50;74.90;101246.25;4997090;28;46708;-55
2022/10/02 02:44:23;;;;;;;;;2.40;2.40;;;;;17.46;75.06;101245.88;5013595;28;45377;-58
2022/10/02 02:47:10;;;;;;;;;3.00;2.00;;;;;17.52;75.10;101248.78;5014953;28;45315;-55
2022/10/02 02:50:00;;;;;;;;;2.60;2.60;;;;;17.28;75.11;101210.03;5014557;28;45480;-61
2022/10/02 02:52:35;;;;;;;;;5.00;3.00;;;;;17.50;75.18;101242.63;4998187;28;45856;-57
2022/10/02 02:55:04;;;;;;;;;3.80;3.80;;;;;17.50;75.35;101237.09;4997143;28;45283;-58
2022/10/02 02:57:42;;;;;;;;;1.80;1.80;;;;;17.46;75.54;101232.00;4985896;28;47671;-58
2022/10/02 03:00:08;;;;;;;;;2.00;2.00;;;;;16.99;75.65;101165.56;5015015;28;45374;-54
2022/10/02 03:02:33;;;;;;;;;1.40;1.00;;;;;17.46;75.78;101232.00;4980304;28;46636;-55
2022/10/02 03:04:59;;;;;;;;;3.00;3.00;;;;;17.46;76.08;101232.00;4996863;28;45605;-57
2022/10/02 03:07:24;;;;;;;;;1.75;1.75;;;;;17.47;75.73;101228.16;5014848;28;45362;-57
2022/10/02 03:10:05;;;;;;;;;3.00;2.00;;;;;17.44;76.21;101225.88;4980950;28;45516;-55
2022/10/02 03:12:39;;;;;;;;;2.60;1.80;;;;;17.44;75.97;101223.09;4996643;28;45549;-56
2022/10/02 03:15:12;;;;;;;;;0.00;0.00;;;;;17.50;75.97;101223.22;4980835;28;45525;-57
2022/10/02 03:17:56;;;;;;;;;2.00;2.00;;;;;17.34;76.11;101197.91;4996802;28;45183;-58
2022/10/02 03:20:44;;;;;;;;;2.20;2.00;;;;;17.50;76.08;101228.75;5014778;28;45195;-58
2022/10/02 03:23:18;;;;;;;;;1.00;1.00;;;;;17.34;75.95;101195.13;4968552;28;47507;-55
2022/10/02 03:25:51;;;;;;;;;2.00;2.00;;;;;17.50;76.09;101217.66;4996472;28;45376;-54
2022/10/02 03:28:21;;;;;;;;;2.60;1.40;;;;;17.51;76.20;101211.88;4996710;28;45334;-58
2022/10/02 03:30:46;;;;;;;;;1.00;1.00;;;;;17.52;76.58;101221.03;5013630;28;45422;-58
2022/10/02 03:33:13;;;;;;;;;3.25;2.00;;;;;17.41;76.13;101198.66;4979721;28;45959;-56
2022/10/02 03:35:39;;;;;;;;;2.00;2.00;;;;;17.55;76.31;101215.00;4980123;28;45557;-57
2022/10/02 03:38:08;;;;;;;;;1.00;1.00;;;;;17.50;76.25;101201.84;5012765;28;45263;-58
2022/10/02 03:40:34;;;;;;;;;2.00;1.00;;;;;17.53;76.53;101208.84;4997298;28;45610;-57
2022/10/02 03:42:59;;;;;;;;;1.25;1.25;;;;;17.56;76.52;101211.94;4996022;28;45730;-58
2022/10/02 03:45:26;;;;;;;;;1.00;1.00;;;;;17.50;76.40;101201.00;4998865;28;45371;-56
2022/10/02 03:47:51;;;;;;;;;1.00;1.00;;;;;17.55;76.39;101207.50;5017364;28;45406;-58
2022/10/02 03:50:17;;;;;;;;;2.00;2.00;;;;;17.57;76.65;101202.53;5017375;28;45366;-58
2022/10/02 03:52:43;;;;;;;;;0.25;0.25;;;;;17.55;76.91;101206.66;5017576;28;46233;-55
2022/10/02 03:55:33;;;;;;;;;0.00;0.00;;;;;17.52;77.10;101209.91;5017257;28;45315;-57
2022/10/02 03:58:01;;;;;;;;;0.80;0.80;;;;;17.43;76.80;101193.69;5003029;28;45939;-58
2022/10/02 04:00:33;;;;;;;;;1.00;1.00;;;;;17.52;77.33;101209.91;5006484;28;45427;-58
2022/10/02 04:03:21;;;;;;;;;1.00;1.00;;;;;17.50;77.83;101201.00;4982988;28;46225;-58
2022/10/02 04:05:57;;;;;;;;;0.00;0.00;;;;;17.48;77.19;101199.34;5016025;28;45508;-57
2022/10/02 04:08:35;;;;;;;;;1.60;0.60;;;;;16.89;77.09;101111.59;5000898;28;45440;-57
2022/10/02 04:11:08;;;;;;;;;0.20;0.20;;;;;17.46;77.55;101209.81;4999864;28;45415;-57
2022/10/02 04:13:39;;;;;;;;;1.00;0.00;;;;;17.43;78.05;101206.69;5016924;28;46069;-55
2022/10/02 04:16:08;;;;;;;;;1.20;0.00;;;;;17.43;77.89;101207.56;4983127;28;45651;-58
2022/10/02 04:19:00;;;;;;;;;0.40;0.40;;;;;17.48;77.70;101223.44;4999458;28;45362;-58
2022/10/02 04:21:41;;;;;;;;;0.00;0.00;;;;;17.46;77.39;101209.81;5016921;28;45409;-57
2022/10/02 04:24:13;;;;;;;;;0.80;0.80;;;;;17.51;77.39;101211.88;4983286;28;47909;-59
2022/10/02 04:26:42;;;;;;;;;0.80;0.00;;;;;17.43;77.46;101199.22;5016836;28;45454;-56
2022/10/02 04:29:23;;;;;;;;;0.20;0.20;;;;;17.51;77.26;101222.97;4979272;28;45387;-57
2022/10/02 04:31:52;;;;;;;;;0.00;0.00;;;;;17.47;77.19;101194.03;4996640;28;45459;-58
2022/10/02 04:34:18;;;;;;;;;0.00;0.00;;;;;17.55;77.24;101212.22;4979520;28;46236;-55
2022/10/02 04:37:00;;;;;;;;;1.00;0.00;;;;;17.52;77.76;101216.31;4995866;28;45438;-58
2022/10/02 04:39:39;;;;;;;;;0.00;0.00;;;;;17.53;77.32;101220.78;4979638;28;45358;-59
2022/10/02 04:42:19;;;;;;;;;0.00;0.00;;;;;17.53;77.84;101217.16;4995900;28;45490;-58
2022/10/02 04:45:04;;;;;;;;;0.00;0.00;;;;;17.51;77.45;101222.97;5010583;28;46644;-57
2022/10/02 04:47:36;;;;;;;;;0.00;0.00;;;;;17.52;77.51;101230.22;4995510;28;45446;-57
2022/10/02 04:50:26;;;;;;;;;0.00;0.00;;;;;17.52;77.59;101224.66;5012238;28;45444;-55
2022/10/02 04:53:16;;;;;;;;;0.20;0.20;;;;;17.55;77.50;101224.16;4997045;28;45576;-56
2022/10/02 04:55:46;;;;;;;;;0.00;0.00;;;;;17.56;76.96;101228.59;4996395;28;46526;-56
2022/10/02 04:58:29;;;;;;;;;0.00;0.00;;;;;17.54;77.37;101221.59;5012264;28;45301;-56
2022/10/02 05:01:04;;;;;;;;;0.00;0.00;;;;;17.51;77.32;101230.44;4996834;28;45306;-56
2022/10/02 05:03:52;;;;;;;;;0.00;0.00;;;;;17.51;77.18;101233.22;4996765;28;45249;-59
2022/10/02 05:06:38;;;;;;;;;0.00;0.00;;;;;17.49;77.68;101233.47;5010557;28;46540;-58
2022/10/02 05:09:25;;;;;;;;;0.00;0.00;;;;;17.46;77.33;101232.00;4996519;28;45245;-57
2022/10/02 05:12:09;;;;;;;;;0.00;0.00;;;;;17.46;77.33;101232.00;4996547;28;45371;-58
2022/10/02 05:14:58;;;;;;;;;0.00;0.00;;;;;17.40;77.48;101227.44;4996411;28;45290;-57
2022/10/02 05:17:48;;;;;;;;;0.00;0.00;;;;;17.42;77.22;101236.38;5010599;28;46702;-57
2022/10/02 05:20:40;;;;;;;;;0.00;0.00;;;;;17.43;77.05;101245.53;4994737;28;45732;-58
2022/10/02 05:23:14;;;;;;;;;0.00;0.00;;;;;17.39;76.90;101234.09;4996444;28;45293;-59
2022/10/02 05:26:08;;;;;;;;;0.00;0.00;;;;;17.39;76.96;101239.63;4995166;28;45447;-59
2022/10/02 05:28:56;;;;;;;;;0.00;0.00;;;;;17.22;77.00;101217.38;4979848;28;45791;-57
2022/10/02 05:31:25;;;;;;;;;0.00;0.00;;;;;17.33;76.89;101232.28;5015185;28;45721;-57
2022/10/02 05:34:30;;;;;;;;;1.00;0.00;;;;;17.31;76.87;101232.56;5015857;28;45381;-57
2022/10/02 05:37:16;;;;;;;;;0.00;0.00;;;;;17.24;77.19;101231.84;5015779;28;45462;-55
2022/10/02 05:40:03;;;;;;;;;0.00;0.00;;;;;17.28;76.89;101240.53;5015696;28;45819;-56
2022/10/02 05:42:33;;;;;;;;;1.00;0.00;;;;;17.27;76.98;101239.69;5000318;28;45386;-58
2022/10/02 05:45:10;;;;;;;;;0.00;0.00;;;;;16.59;76.90;101132.00;5014848;28;45435;-57
2022/10/02 05:47:38;;;;;;;;;0.00;0.00;;;;;17.16;77.03;101233.09;5016128;28;45455;-59
2022/10/02 05:50:28;;;;;;;;;1.80;0.00;;;;;17.23;76.85;101245.97;4997547;28;46331;-57
2022/10/02 05:53:17;;;;;;;;;0.00;0.00;;;;;17.05;77.11;101226.47;5006940;28;45471;-57
2022/10/02 05:55:53;;;;;;;;;0.00;0.00;;;;;17.20;77.12;101256.44;4984541;28;45487;-57
2022/10/02 05:58:30;;;;;;;;;0.00;0.00;;;;;17.18;77.07;101257.81;5015756;28;45524;-57
2022/10/02 06:01:16;;;;;;;;;0.60;0.60;;;;;17.17;77.08;101262.50;4981735;28;45672;-57
2022/10/02 06:03:43;;;;;;;;;1.00;0.00;;;;;17.03;76.97;101247.22;5015102;28;45391;-54
2022/10/02 06:06:14;;;;;;;;;0.00;0.00;;;;;17.22;77.12;101266.47;5015262;28;45309;-55
2022/10/02 06:08:43;;;;;;;;;0.00;0.00;;;;;17.06;76.67;101233.69;5015385;28;45601;-56
2022/10/02 06:11:45;;;;;;;;;0.00;0.00;;;;;17.26;76.87;101267.66;4981434;28;47643;-56
2022/10/02 06:14:32;;;;;;;;;0.20;0.00;;;;;17.22;76.82;101260.94;4999462;28;45468;-56
2022/10/02 06:17:10;;;;;;;;;0.00;0.00;;;;;17.23;77.06;101262.63;4997325;28;45953;-56
2022/10/02 06:19:57;;;;;;;;;0.00;0.00;;;;;17.24;77.25;101269.84;5014253;28;45447;-56
2022/10/02 06:22:28;;;;;;;;;0.00;0.00;;;;;17.25;76.75;101263.19;5014890;28;46735;-55
2022/10/02 06:25:22;;;;;;;;;0.00;0.00;;;;;17.26;76.86;101254.66;4997038;28;45353;-57
2022/10/02 06:28:08;;;;;;;;;0.40;0.00;;;;;17.06;76.85;101230.94;4994743;28;45418;-56
2022/10/02 06:30:36;;;;;;;;;0.00;0.00;;;;;17.29;76.73;101259.69;4981673;28;45372;-55
2022/10/02 06:33:23;;;;;;;;;0.00;0.00;;;;;17.32;76.64;101250.88;4997438;28;46558;-55
2022/10/02 06:36:02;;;;;;;;;0.00;0.00;;;;;17.36;76.49;101267.88;4996975;28;45427;-57
2022/10/02 06:38:49;;;;;;;;;0.60;0.60;;;;;17.39;76.26;101261.00;5014788;28;45330;-56
2022/10/02 06:41:39;;;;;;;;;0.00;0.00;;;;;17.24;76.52;101234.59;5007790;28;45492;-57
2022/10/02 06:44:20;;;;;;;;;1.60;0.00;;;;;17.28;76.44;101237.75;4990624;28;45416;-57
2022/10/02 06:47:20;;;;;;;;;0.00;0.00;;;;;17.51;76.46;101269.28;4977419;28;45504;-56
2022/10/02 06:50:09;;;;;;;;;0.00;0.00;;;;;17.29;76.34;101228.34;4994937;28;45360;-55
2022/10/02 06:52:56;;;;;;;;;1.00;1.00;;;;;17.58;76.32;101273.63;4962430;28;45624;-56
2022/10/02 06:55:25;;;;;;;;;0.00;0.00;;;;;17.58;76.09;101267.22;4994529;28;45381;-57
2022/10/02 06:58:04;;;;;;;;;0.00;0.00;;;;;17.60;76.16;101268.66;4995021;28;45309;-56
2022/10/02 07:00:31;;;;;;;;;0.00;0.00;;;;;17.61;76.48;101273.13;4994854;28;45311;-56
2022/10/02 07:03:17;;;;;;;;;0.00;0.00;;;;;17.64;76.36;101276.47;4977259;28;45519;-58
2022/10/02 07:06:14;;;;;;;;;0.20;0.20;;;;;17.66;76.40;101271.53;4977397;28;46969;-56
2022/10/02 07:09:00;;;;;;;;;1.00;0.00;;;;;17.67;76.34;101271.28;4994784;28;45407;-56
2022/10/02 07:12:01;;;;;;;;;0.00;0.00;;;;;17.67;76.10;101276.00;4994282;28;45459;-56
2022/10/02 07:14:57;;;;;;;;;0.00;0.00;;;;;17.71;76.20;101266.06;4969483;28;45858;-56
2022/10/02 07:17:41;;;;;;;;;0.60;0.00;;;;;17.73;76.10;101261.97;4994014;28;45402;-56
2022/10/02 07:20:17;;;;;;;;;0.00;0.00;;;;;17.75;76.27;101262.56;4997914;28;45441;-57
2022/10/02 07:23:00;;;;;;;;;0.00;0.00;;;;;17.56;76.06;101236.09;4980039;28;45818;-57
2022/10/02 07:25:44;;;;;;;;;0.40;0.00;;;;;17.71;75.88;101269.69;4997530;28;45489;-55
2022/10/02 07:28:15;;;;;;;;;0.40;0.40;;;;;17.74;75.46;101262.81;4997465;28;46663;-55
2022/10/02 07:30:52;;;;;;;;;1.00;0.00;;;;;17.78;75.16;101266.78;4980558;28;45213;-57
2022/10/02 07:33:30;;;;;;;;;0.00;0.00;;;;;17.79;74.91;101260.16;4997962;28;45343;-57
2022/10/02 07:36:01;;;;;;;;;0.20;0.20;;;;;17.84;74.49;101270.50;4980595;28;45485;-56
2022/10/02 07:39:01;;;;;;;;;1.60;0.80;;;;;17.61;74.22;101242.59;4997607;28;46252;-58
2022/10/02 07:41:32;;;;;;;;;0.00;0.00;;;;;17.77;74.50;101284.50;4991404;28;46745;-58
2022/10/02 07:44:16;;;;;;;;;0.00;0.00;;;;;17.57;74.36;101243.34;5027819;28;45354;-58
2022/10/02 07:46:56;;;;;;;;;0.80;0.80;;;;;17.70;74.13;101256.06;5036545;28;45340;-56
2022/10/02 07:49:35;;;;;;;;;0.20;0.00;;;;;17.88;74.09;101275.31;5016610;28;45432;-56
2022/10/02 07:52:22;;;;;;;;;3.60;0.00;;;;;17.85;73.82;101272.19;5011233;28;45434;-59
2022/10/02 07:54:57;;;;;;;;;0.80;0.00;;;;;17.88;74.09;101278.06;5037295;28;45335;-61
2022/10/02 07:57:38;;;;;;;;;1.00;1.00;;;;;17.88;73.88;101277.25;5036960;28;45383;-60
2022/10/02 08:00:23;;;;;;;;;1.00;1.00;;;;;17.93;73.85;101291.22;5036418;28;45887;-55
2022/10/02 08:03:09;;;;;;;;;0.00;0.00;;;;;18.01;73.11;101289.97;5019133;28;45514;-61
2022/10/02 08:05:41;;;;;;;;;0.60;0.60;;;;;18.13;73.33;101301.06;5018613;28;45447;-59
2022/10/02 08:08:29;;;;;;;;;1.00;1.00;;;;;18.12;73.09;101305.78;5002740;28;45377;-59
2022/10/02 08:11:08;;;;;;;;;2.00;2.00;;;;;18.01;73.05;101273.31;5036614;28;46837;-60
2022/10/02 08:13:58;;;;;;;;;0.80;0.80;;;;;18.11;72.31;101287.44;5002205;28;45781;-61
2022/10/02 08:16:27;;;;;;;;;2.00;1.00;;;;;18.17;72.48;101312.50;5021293;28;45340;-60
2022/10/02 08:19:04;;;;;;;;;1.40;1.00;;;;;17.81;72.17;101255.19;5035571;28;45441;-58
2022/10/02 08:21:31;;;;;;;;;1.60;0.60;;;;;18.19;72.26;101300.06;5002385;28;47325;-58
2022/10/02 08:24:11;;;;;;;;;2.40;1.40;;;;;18.20;71.95;101300.91;4973653;28;45474;-59
2022/10/02 08:26:58;;;;;;;;;2.20;1.80;;;;;18.29;72.03;101303.03;5008038;28;45450;-62
2022/10/02 08:29:41;;;;;;;;;0.60;0.60;;;;;18.35;71.68;101297.56;5026737;28;45529;-65
2022/10/02 08:32:10;;;;;;;;;1.60;1.60;;;;;18.26;71.19;101289.63;4977267;28;46159;-64
2022/10/02 08:34:36;;;;;;;;;3.00;2.00;;;;;18.36;71.72;101307.59;4995469;28;45445;-63
2022/10/02 08:37:23;;;;;;;;;2.50;2.00;;;;;18.45;71.31;101302.47;4995318;28;45640;-62
2022/10/02 08:40:07;;;;;;;;;3.00;1.80;;;;;18.50;71.00;101299.75;4989151;28;45599;-60
2022/10/02 08:42:38;;;;;;;;;1.60;1.00;;;;;18.56;70.76;101304.31;4996105;28;45516;-60
2022/10/02 08:45:25;;;;;;;;;2.80;2.20;;;;;18.48;70.52;101290.81;4992595;28;45323;-59
2022/10/02 08:48:23;;;;;;;;;1.20;1.20;;;;;18.60;70.68;101316.59;4971024;28;45486;-59
2022/10/02 08:51:02;;;;;;;;;1.60;1.60;;;;;18.66;70.34;101312.81;4995066;28;45424;-61
2022/10/02 08:54:14;;;;;;;;;4.20;2.00;;;;;18.70;70.55;101315.94;5011296;28;46717;-61
2022/10/02 08:56:54;;;;;;;;;2.40;1.20;;;;;18.76;70.23;101314.94;5013047;28;45500;-59
2022/10/02 08:59:38;;;;;;;;;2.00;2.00;;;;;18.67;70.59;101313.66;4995392;28;45494;-61
2022/10/02 09:02:26;;;;;;;;;2.00;2.00;;;;;18.69;70.70;101320.63;5009261;28;45374;-61
2022/10/02 09:05:10;;;;;;;;;2.00;2.00;;;;;18.72;70.71;101312.91;4994295;28;46895;-60
2022/10/02 09:08:07;;;;;;;;;4.60;2.00;;;;;18.73;70.20;101314.59;5009817;28;45501;-61
2022/10/02 09:11:10;;;;;;;;;2.60;1.40;;;;;18.78;70.29;101323.03;4994466;28;45290;-60
2022/10/02 09:13:54;;;;;;;;;1.80;0.80;;;;;18.79;70.59;101314.41;4996153;28;45839;-61
2022/10/02 09:16:47;;;;;;;;;4.40;3.00;;;;;18.85;70.24;101312.56;4996117;28;46290;-60
2022/10/02 09:19:34;;;;;;;;;2.20;2.20;;;;;18.87;70.32;101315.06;4984955;28;45473;-63
2022/10/02 09:22:19;;;;;;;;;1.60;1.00;;;;;18.88;70.21;101306.47;4996057;28;45357;-59
2022/10/02 09:24:58;;;;;;;;;2.60;1.20;;;;;18.69;70.40;101284.50;4996252;28;45377;-61
2022/10/02 09:27:23;;;;;;;;;2.20;1.80;;;;;18.94;70.17;101301.88;4995525;28;45955;-59
2022/10/02 09:30:04;;;;;;;;;2.00;2.00;;;;;19.00;70.08;101309.16;5011582;28;45644;-62
2022/10/02 09:33:02;;;;;;;;;2.80;2.00;;;;;19.06;69.76;101302.59;5007013;28;45454;-60
2022/10/02 09:35:31;;;;;;;;;3.00;1.60;;;;;19.03;69.90;101303.13;5002152;28;45472;-60
2022/10/02 09:38:19;;;;;;;;;1.40;1.00;;;;;19.03;69.96;101302.28;5034014;28;45423;-60
2022/10/02 09:41:00;;;;;;;;;2.60;1.40;;;;;19.05;70.09;101314.84;5016608;28;45690;-59
2022/10/02 09:43:30;;;;;;;;;2.00;0.00;;;;;19.06;70.03;101296.22;5014643;28;45560;-59
2022/10/02 09:46:01;;;;;;;;;1.40;1.40;;;;;18.67;69.88;101231.09;5024137;28;45295;-58
2022/10/02 09:48:29;;;;;;;;;1.20;1.20;;;;;19.14;69.95;101306.03;5033704;28;45361;-60
2022/10/02 09:51:04;;;;;;;;;1.20;1.20;;;;;18.83;69.72;101254.41;5034386;28;45413;-64
2022/10/02 09:53:43;;;;;;;;;1.80;1.80;;;;;19.16;69.79;101303.88;5016290;28;45466;-63
2022/10/02 09:56:29;;;;;;;;;0.60;0.60;;;;;19.23;69.46;101315.66;5014580;28;45510;-63
2022/10/02 09:59:22;;;;;;;;;2.00;0.20;;;;;19.29;69.29;101309.06;5013614;28;46663;-61
2022/10/02 10:02:18;;;;;;;;;1.00;1.00;;;;;19.45;69.18;101310.09;5034063;28;45536;-61
2022/10/02 10:05:08;;;;;;;;;1.00;1.00;;;;;19.61;68.53;101313.94;5033376;28;45539;-61
2022/10/02 10:07:54;;;;;;;;;1.00;1.00;;;;;19.68;68.13;101307.34;5033718;28;45265;-60
2022/10/02 10:10:28;;;;;;;;;0.60;0.60;;;;;19.84;67.59;101316.72;4983177;28;46718;-60
2022/10/02 10:13:06;;;;;;;;;2.60;1.00;;;;;19.67;67.93;101284.19;5029050;28;45521;-62
2022/10/02 10:16:06;;;;;;;;;3.40;1.80;;;;;19.94;67.66;101305.66;4980680;28;45415;-60
2022/10/02 10:19:01;;;;;;;;;1.80;1.00;;;;;19.86;66.82;101287.47;5013630;28;45568;-61
2022/10/02 10:22:04;;;;;;;;;1.80;1.80;;;;;19.92;67.02;101293.97;4998123;28;46738;-60
2022/10/02 10:24:51;;;;;;;;;1.00;1.00;;;;;20.02;66.65;101307.19;4995746;28;45437;-61
2022/10/02 10:27:29;;;;;;;;;1.60;1.60;;;;;20.03;66.26;101320.00;4995840;28;45420;-60
2022/10/02 10:30:06;;;;;;;;;3.00;0.00;;;;;19.77;66.69;101280.69;4994008;28;45455;-59
2022/10/02 10:32:55;;;;;;;;;1.60;1.00;;;;;20.00;66.82;101318.59;4993387;28;49487;-60
2022/10/02 10:35:36;;;;;;;;;1.60;0.60;;;;;20.04;66.33;101310.53;5030155;28;45738;-62
2022/10/02 10:38:32;;;;;;;;;1.00;0.80;;;;;20.14;65.97;101319.03;5032534;28;45482;-60
2022/10/02 10:41:21;;;;;;;;;1.80;0.80;;;;;20.10;65.70;101281.63;5033492;28;45345;-60
2022/10/02 10:44:11;;;;;;;;;0.00;0.00;;;;;20.24;64.87;101317.44;5014500;28;46399;-60
2022/10/02 10:46:43;;;;;;;;;1.00;1.00;;;;;20.24;65.20;101317.44;5022275;28;45863;-63
2022/10/02 10:49:14;;;;;;;;;0.60;0.60;;;;;20.09;64.75;101302.25;5032599;28;45424;-61
2022/10/02 10:52:19;;;;;;;;;1.00;1.00;;;;;20.15;65.38;101312.34;5033084;28;45511;-64
2022/10/02 10:54:56;;;;;;;;;1.00;0.20;;;;;20.15;65.47;101298.41;4994419;28;46669;-61
2022/10/02 10:57:40;;;;;;;;;0.00;0.00;;;;;20.17;65.05;101300.94;5052274;28;45438;-63
2022/10/02 11:00:21;;;;;;;;;0.40;0.40;;;;;20.21;65.18;101304.03;5036108;28;45460;-62
2022/10/02 11:03:06;;;;;;;;;1.40;1.40;;;;;20.15;64.41;101303.97;5018491;28;45512;-60
2022/10/02 11:05:43;;;;;;;;;2.40;1.60;;;;;20.13;64.58;101313.69;5036104;28;45468;-62
2022/10/02 11:08:42;;;;;;;;;0.40;0.20;;;;;20.10;64.30;101312.28;5036114;28;45416;-64
2022/10/02 11:11:26;;;;;;;;;0.80;0.80;;;;;19.93;64.42;101278.91;5034931;28;45333;-62
2022/10/02 11:14:13;;;;;;;;;0.00;0.00;;;;;20.09;64.08;101298.59;5018575;28;45439;-60
2022/10/02 11:17:13;;;;;;;;;1.00;1.00;;;;;20.22;64.34;101309.31;5036327;28;46533;-60
2022/10/02 11:19:59;;;;;;;;;1.80;0.80;;;;;20.20;63.61;101286.47;4998741;28;46509;-59
2022/10/02 11:22:38;;;;;;;;;0.40;0.40;;;;;20.15;63.47;101269.69;4971259;28;45524;-63
2022/10/02 11:25:21;;;;;;;;;0.00;0.00;;;;;20.35;63.18;101304.44;4982641;28;45539;-64
2022/10/02 11:28:20;;;;;;;;;2.00;0.00;;;;;20.07;63.81;101278.53;4972366;28;47382;-64
2022/10/02 11:30:54;;;;;;;;;0.00;0.00;;;;;20.03;63.95;101286.56;5030688;28;45444;-62
2022/10/02 11:33:25;;;;;;;;;2.00;1.60;;;;;20.14;63.64;101305.09;5017646;28;45486;-62
2022/10/02 11:36:17;;;;;;;;;0.60;0.60;;;;;20.08;64.44;101316.44;5035986;28;45388;-66
2022/10/02 11:39:17;;;;;;;;;2.80;2.80;;;;;20.06;64.87;101313.91;4998232;28;50623;-61
2022/10/02 11:42:23;;;;;;;;;1.00;1.00;;;;;19.79;64.66;101267.34;5015958;28;45484;-61
2022/10/02 11:45:27;;;;;;;;;1.40;1.40;;;;;20.03;64.83;101308.88;5002145;28;45453;-59
2022/10/02 11:48:11;;;;;;;;;3.00;0.00;;;;;20.06;64.51;101313.06;5001504;28;45412;-64
2022/10/02 11:50:45;;;;;;;;;0.80;0.80;;;;;20.08;64.15;101322.84;5028332;28;45735;-61
2022/10/02 11:53:28;;;;;;;;;2.80;1.20;;;;;20.04;64.59;101338.41;4960475;28;45475;-60
2022/10/02 11:56:10;;;;;;;;;3.00;2.60;;;;;19.71;67.51;101340.22;5012432;28;45556;-62
2022/10/02 11:58:47;;;;;;;;;1.20;0.60;;;;;19.55;70.51;101350.31;5028275;28;45568;-63
2022/10/02 12:01:16;;;;;;;;;1.60;1.60;;;;;19.27;72.62;101343.81;4993191;28;45890;-63
2022/10/02 12:04:24;;;;;;;;;1.60;1.00;;;;;19.25;72.82;101344.06;5014364;28;45454;-63
2022/10/02 12:07:08;;;;;;;;;1.00;1.00;;;;;19.18;72.98;101322.00;5006851;28;45392;-62
2022/10/02 12:09:39;;;;;;;;;1.40;0.60;;;;;19.83;72.81;101345.63;4994933;28;45464;-63
2022/10/02 12:12:31;;;;;;;;;0.80;0.80;;;;;20.94;68.42;101342.59;4994717;28;45528;-63
2022/10/02 12:15:16;;;;;;;;;0.40;0.40;;;;;21.80;66.24;101338.91;4976659;28;45553;-65
2022/10/02 12:18:17;;;;;;;;;3.20;0.80;;;;;21.82;64.92;101341.44;4994933;28;45809;-66
2022/10/02 12:27:08;;;;;;;;;2.80;1.00;;;;;21.91;64.93;101331.41;5011181;28;45521;-64
2022/10/02 12:30:04;;;;;;;;;0.40;0.40;;;;;21.51;65.62;101320.59;5012694;28;45534;-65
2022/10/02 12:32:41;;;;;;;;;0.00;0.00;;;;;21.12;67.00;101338.53;4993226;28;45556;-66